Time;durP1;ratioP1;P1;durP2;ratioP2;P2;SDS_P1;SDS_P2;PMS_P1;PMS_P2;Temp;Humidity;BMP_temperature;BMP_pressure;BME280_temperature;BME280_humidity;BME280_pressure;Samples;Min_cycle;Max_cycle;Signal;HPM_P1;HPM_P2
2022/07/17 00:00:45;;;;;;;2.80;0.80;;;16.00;90.10;;;;;;5104462;28;20027;-35
2022/07/17 00:03:16;;;;;;;4.00;2.13;;;16.00;90.10;;;;;;5105732;28;20023;-35
2022/07/17 00:05:42;;;;;;;2.35;0.80;;;16.00;90.20;;;;;;5085120;28;20116;-35
2022/07/17 00:08:10;;;;;;;1.48;0.63;;;15.90;90.20;;;;;;5099219;28;20020;-34
2022/07/17 00:10:40;;;;;;;2.35;0.70;;;15.90;90.30;;;;;;5104988;28;20451;-34
2022/07/17 00:13:07;;;;;;;4.97;0.88;;;15.90;90.40;;;;;;5105140;28;20023;-35
2022/07/17 00:15:33;;;;;;;2.00;0.90;;;15.90;90.50;;;;;;5104295;28;20467;-35
2022/07/17 00:17:59;;;;;;;3.83;0.90;;;15.80;90.50;;;;;;5105457;28;20023;-35
2022/07/17 00:20:25;;;;;;;4.40;1.00;;;15.90;90.60;;;;;;5105138;28;20051;-35
2022/07/17 00:22:51;;;;;;;1.23;0.68;;;15.90;90.60;;;;;;5103915;28;20068;-34
2022/07/17 00:25:17;;;;;;;4.13;0.88;;;15.90;90.70;;;;;;5105032;28;20039;-34
2022/07/17 00:27:42;;;;;;;1.85;0.77;;;15.80;90.80;;;;;;5104811;28;20026;-36
2022/07/17 00:30:08;;;;;;;4.07;0.75;;;15.80;90.90;;;;;;5104794;28;20019;-35
2022/07/17 00:32:37;;;;;;;1.67;0.68;;;15.80;90.80;;;;;;5104948;28;20158;-35
2022/07/17 00:35:03;;;;;;;1.70;0.60;;;15.80;90.80;;;;;;5105169;28;20425;-35
2022/07/17 00:37:29;;;;;;;1.27;0.60;;;15.80;90.80;;;;;;5104104;28;20047;-35
2022/07/17 00:39:54;;;;;;;2.45;0.88;;;15.70;90.80;;;;;;5105989;28;20034;-36
2022/07/17 00:42:20;;;;;;;2.67;0.70;;;15.70;90.90;;;;;;5105174;28;20414;-34
2022/07/17 00:44:45;;;;;;;1.27;0.70;;;15.70;91.00;;;;;;5104373;28;20024;-35
2022/07/17 00:47:20;;;;;;;3.33;1.17;;;15.60;91.00;;;;;;5105431;28;20769;-35
2022/07/17 00:49:47;;;;;;;2.20;0.70;;;15.60;91.00;;;;;;5104607;28;20084;-35
2022/07/17 00:52:14;;;;;;;2.22;0.80;;;15.60;91.00;;;;;;5085823;28;20479;-34
2022/07/17 00:54:41;;;;;;;3.13;1.10;;;15.60;91.00;;;;;;5103085;28;20118;-35
2022/07/17 00:57:09;;;;;;;1.65;0.60;;;15.50;91.20;;;;;;5108191;28;20225;-34
2022/07/17 00:59:35;;;;;;;2.70;0.77;;;15.50;91.20;;;;;;5108275;28;20035;-34
2022/07/17 01:02:05;;;;;;;3.58;0.93;;;15.50;91.30;;;;;;5108701;28;20104;-35
2022/07/17 01:04:31;;;;;;;1.92;0.60;;;15.50;91.30;;;;;;5107928;28;20104;-35
2022/07/17 01:06:58;;;;;;;3.92;0.85;;;15.50;91.30;;;;;;5109210;28;20569;-34
2022/07/17 01:09:23;;;;;;;2.70;0.68;;;15.50;91.30;;;;;;5107618;28;20364;-34
2022/07/17 01:11:50;;;;;;;1.85;0.80;;;15.50;91.30;;;;;;5108136;28;20072;-36
2022/07/17 01:14:16;;;;;;;4.20;0.85;;;15.50;91.30;;;;;;5108517;28;20027;-35
2022/07/17 01:16:43;;;;;;;2.33;0.60;;;15.50;91.40;;;;;;5108462;28;20092;-35
2022/07/17 01:19:10;;;;;;;3.25;0.90;;;15.50;91.40;;;;;;5107843;28;20031;-36
2022/07/17 01:21:45;;;;;;;2.15;0.90;;;15.50;91.40;;;;;;5107839;28;20027;-34
2022/07/17 01:24:11;;;;;;;2.05;0.80;;;15.50;91.40;;;;;;5108492;28;20403;-35
2022/07/17 01:26:40;;;;;;;3.63;0.75;;;15.50;91.40;;;;;;5107228;28;20098;-35
2022/07/17 01:29:06;;;;;;;2.05;0.63;;;15.40;91.40;;;;;;5108900;28;20343;-34
2022/07/17 01:31:32;;;;;;;2.70;0.80;;;15.40;91.50;;;;;;5108370;28;20027;-34
2022/07/17 01:34:00;;;;;;;3.20;0.80;;;15.30;91.50;;;;;;5107946;28;20027;-34
2022/07/17 01:36:26;;;;;;;1.95;0.80;;;15.30;91.60;;;;;;5107935;28;20239;-35
2022/07/17 01:38:51;;;;;;;2.03;0.60;;;15.30;91.60;;;;;;5108505;28;20032;-34
2022/07/17 01:41:17;;;;;;;2.30;0.70;;;15.30;91.60;;;;;;5107291;28;20038;-35
2022/07/17 01:43:42;;;;;;;3.42;0.85;;;15.30;91.60;;;;;;5108419;28;20041;-35
2022/07/17 01:46:08;;;;;;;2.45;0.70;;;15.30;91.60;;;;;;5107416;28;20032;-34
2022/07/17 01:48:37;;;;;;;2.83;0.60;;;15.30;91.70;;;;;;5108126;28;20020;-34
2022/07/17 01:51:03;;;;;;;2.40;0.90;;;15.30;91.70;;;;;;5107545;28;20111;-34
2022/07/17 01:53:28;;;;;;;2.40;0.93;;;15.30;91.70;;;;;;5107016;28;20564;-34
2022/07/17 01:55:54;;;;;;;3.30;0.90;;;15.30;91.70;;;;;;5107658;28;20589;-35
2022/07/17 01:58:20;;;;;;;2.35;0.90;;;15.20;91.70;;;;;;5108105;28;20031;-34
2022/07/17 02:00:45;;;;;;;2.22;0.75;;;15.20;91.80;;;;;;5107212;28;20016;-34
2022/07/17 02:03:11;;;;;;;2.03;1.08;;;15.20;91.70;;;;;;5107376;28;20061;-34
2022/07/17 02:05:36;;;;;;;1.13;0.73;;;15.20;91.80;;;;;;5106330;28;20495;-35
2022/07/17 02:08:02;;;;;;;2.92;0.80;;;15.20;91.80;;;;;;5107528;28;20119;-35
2022/07/17 02:10:28;;;;;;;2.13;0.70;;;15.20;91.90;;;;;;5107020;28;20023;-34
2022/07/17 02:12:53;;;;;;;2.65;0.70;;;15.20;91.90;;;;;;5107287;28;20039;-34
2022/07/17 02:15:19;;;;;;;1.98;0.73;;;15.20;91.90;;;;;;5106894;28;20024;-34
2022/07/17 02:17:44;;;;;;;1.30;0.70;;;15.20;91.90;;;;;;5107038;28;20027;-34
2022/07/17 02:20:12;;;;;;;1.23;0.77;;;15.20;91.80;;;;;;5107107;28;20043;-34
2022/07/17 02:22:39;;;;;;;2.53;1.00;;;15.10;91.80;;;;;;5106368;28;20456;-39
2022/07/17 02:25:06;;;;;;;3.17;0.75;;;15.10;91.90;;;;;;5107317;28;20024;-35
2022/07/17 02:27:32;;;;;;;2.63;0.90;;;15.10;91.90;;;;;;5105996;28;20024;-34
2022/07/17 02:29:58;;;;;;;3.20;0.85;;;15.10;92.00;;;;;;5106800;28;20108;-35
2022/07/17 02:32:23;;;;;;;2.78;1.10;;;15.10;92.10;;;;;;5106331;28;20030;-35
2022/07/17 02:34:49;;;;;;;2.33;0.88;;;15.10;92.20;;;;;;5106869;28;20058;-35
2022/07/17 02:37:15;;;;;;;4.57;1.05;;;15.10;92.30;;;;;;5106365;28;20083;-34
2022/07/17 02:39:52;;;;;;;2.65;0.77;;;15.10;92.30;;;;;;5106314;28;20023;-34
2022/07/17 02:42:19;;;;;;;4.10;0.93;;;15.00;92.40;;;;;;5106612;28;20132;-33
2022/07/17 02:44:45;;;;;;;3.13;1.05;;;15.00;92.40;;;;;;5106118;28;20463;-34
2022/07/17 02:47:10;;;;;;;2.08;0.90;;;15.00;92.50;;;;;;5106507;28;20107;-34
2022/07/17 02:49:36;;;;;;;1.00;0.70;;;15.00;92.50;;;;;;5106114;28;20022;-35
2022/07/17 02:52:01;;;;;;;2.25;1.15;;;15.00;92.50;;;;;;5107033;28;20031;-34
2022/07/17 02:54:27;;;;;;;1.00;0.70;;;14.90;92.60;;;;;;5106268;28;20019;-34
2022/07/17 02:56:52;;;;;;;2.05;1.10;;;14.90;92.60;;;;;;5106156;28;20036;-34
2022/07/17 02:59:18;;;;;;;2.28;1.10;;;14.90;92.60;;;;;;5106107;28;20526;-35
2022/07/17 03:01:43;;;;;;;1.95;1.00;;;14.90;92.70;;;;;;5102470;28;20062;-34
2022/07/17 03:04:09;;;;;;;1.98;0.82;;;14.80;92.80;;;;;;5100819;28;20016;-34
2022/07/17 03:06:34;;;;;;;4.15;0.85;;;14.90;92.80;;;;;;5106017;28;20092;-33
2022/07/17 03:09:00;;;;;;;2.67;1.00;;;14.80;92.80;;;;;;5106544;28;20016;-34
2022/07/17 03:11:25;;;;;;;3.67;1.10;;;14.80;92.80;;;;;;5105246;28;20066;-34
2022/07/17 03:13:51;;;;;;;2.17;0.77;;;14.80;92.90;;;;;;5106512;28;20441;-34
2022/07/17 03:16:16;;;;;;;3.53;1.48;;;14.80;92.90;;;;;;5105139;28;20035;-34
2022/07/17 03:18:42;;;;;;;2.67;0.90;;;14.70;92.90;;;;;;5104977;28;20024;-34
2022/07/17 03:21:07;;;;;;;2.13;0.80;;;14.70;93.00;;;;;;5106668;28;20418;-35
2022/07/17 03:23:33;;;;;;;2.50;0.85;;;14.70;93.00;;;;;;5105358;28;20040;-34
2022/07/17 03:25:58;;;;;;;1.88;0.90;;;14.70;93.10;;;;;;5105527;28;20015;-34
2022/07/17 03:28:24;;;;;;;2.03;0.90;;;14.70;93.10;;;;;;5105831;28;20032;-37
2022/07/17 03:30:50;;;;;;;4.70;1.10;;;14.70;93.20;;;;;;5106283;28;20030;-35
2022/07/17 03:33:15;;;;;;;2.92;1.13;;;14.70;93.20;;;;;;5105210;28;20482;-34
2022/07/17 03:35:41;;;;;;;4.05;1.15;;;14.70;93.30;;;;;;5105666;28;20027;-33
2022/07/17 03:38:06;;;;;;;5.22;0.98;;;14.60;93.30;;;;;;5106038;28;20119;-34
2022/07/17 03:40:32;;;;;;;2.65;1.40;;;14.70;93.40;;;;;;5104203;28;20515;-33
2022/07/17 03:42:57;;;;;;;3.05;0.90;;;14.60;93.40;;;;;;5105696;28;20031;-34
2022/07/17 03:45:23;;;;;;;2.15;0.80;;;14.60;93.40;;;;;;5105556;28;20031;-35
2022/07/17 03:47:48;;;;;;;3.95;1.40;;;14.60;93.40;;;;;;5086737;28;20543;-36
2022/07/17 03:50:14;;;;;;;2.10;1.13;;;14.60;93.50;;;;;;5104964;28;20499;-34
2022/07/17 03:52:39;;;;;;;3.42;1.10;;;14.60;93.50;;;;;;5105018;28;20080;-34
2022/07/17 03:55:05;;;;;;;1.95;0.85;;;14.60;93.50;;;;;;5104832;28;20027;-34
2022/07/17 03:57:31;;;;;;;2.20;1.20;;;14.60;93.50;;;;;;5104707;28;20502;-34
2022/07/17 03:59:56;;;;;;;3.88;1.10;;;14.60;93.60;;;;;;5104705;28;20015;-34
2022/07/17 04:02:22;;;;;;;4.07;1.00;;;14.60;93.60;;;;;;5105415;28;20028;-35
2022/07/17 04:04:48;;;;;;;2.70;1.10;;;14.60;93.60;;;;;;5105249;28;20452;-35
2022/07/17 04:07:26;;;;;;;1.90;0.90;;;14.60;93.60;;;;;;5104376;28;20028;-35
2022/07/17 04:09:56;;;;;;;1.02;0.63;;;14.60;93.60;;;;;;5105276;28;20467;-36
2022/07/17 04:12:21;;;;;;;2.83;1.13;;;14.50;93.60;;;;;;5104929;28;20031;-35
2022/07/17 04:14:47;;;;;;;3.45;1.45;;;14.50;93.50;;;;;;5104458;28;20028;-34
2022/07/17 04:17:13;;;;;;;1.80;1.00;;;14.50;93.50;;;;;;5105179;28;20427;-33
2022/07/17 04:19:38;;;;;;;2.20;0.82;;;14.50;93.60;;;;;;5104920;28;20027;-34
2022/07/17 04:22:04;;;;;;;1.83;0.90;;;14.50;93.60;;;;;;5104121;28;20108;-34
2022/07/17 04:24:29;;;;;;;2.15;1.02;;;14.50;93.60;;;;;;5104897;28;20547;-35
2022/07/17 04:26:55;;;;;;;2.20;0.80;;;14.50;93.60;;;;;;5105184;28;20032;-34
2022/07/17 04:29:20;;;;;;;2.15;0.75;;;14.50;93.60;;;;;;5107741;28;20043;-35
2022/07/17 04:31:46;;;;;;;1.63;0.90;;;14.50;93.50;;;;;;5109466;28;20023;-34
2022/07/17 04:34:11;;;;;;;1.83;0.82;;;14.50;93.50;;;;;;5109996;28;20383;-35
2022/07/17 04:36:37;;;;;;;3.70;0.80;;;14.50;93.60;;;;;;5107929;28;20118;-34
2022/07/17 04:39:02;;;;;;;3.45;0.98;;;14.50;93.60;;;;;;5109677;28;20024;-34
2022/07/17 04:41:28;;;;;;;1.17;0.80;;;14.50;93.60;;;;;;5108452;28;20059;-35
2022/07/17 04:43:54;;;;;;;1.48;1.00;;;14.60;93.50;;;;;;5108368;28;20471;-34
2022/07/17 04:46:19;;;;;;;2.30;0.90;;;14.60;93.50;;;;;;5109259;28;20024;-34
2022/07/17 04:48:45;;;;;;;4.47;0.90;;;14.60;93.40;;;;;;5109189;28;20024;-36
2022/07/17 04:51:10;;;;;;;2.33;0.95;;;14.70;93.50;;;;;;5108620;28;20464;-33
2022/07/17 04:53:37;;;;;;;3.22;1.02;;;14.70;93.50;;;;;;5109139;28;20441;-36
2022/07/17 04:56:03;;;;;;;2.05;0.90;;;14.70;93.50;;;;;;5109198;28;20035;-34
2022/07/17 04:58:29;;;;;;;2.25;0.90;;;14.70;93.60;;;;;;5108394;28;20102;-35
2022/07/17 05:00:54;;;;;;;3.63;0.90;;;14.70;93.60;;;;;;5109453;28;20102;-35
2022/07/17 05:03:20;;;;;;;2.10;1.00;;;14.70;94.00;;;;;;5107932;28;20459;-34
2022/07/17 05:05:45;;;;;;;1.10;0.95;;;14.70;93.70;;;;;;5108517;28;20031;-35
2022/07/17 05:08:11;;;;;;;1.98;1.05;;;14.80;93.80;;;;;;5108662;28;20020;-35
2022/07/17 05:10:36;;;;;;;1.75;0.82;;;14.80;93.80;;;;;;5107961;28;20020;-35
2022/07/17 05:13:02;;;;;;;1.95;0.98;;;14.80;93.70;;;;;;5108590;28;20016;-36
2022/07/17 05:15:28;;;;;;;2.05;1.00;;;14.80;93.60;;;;;;5107995;28;20035;-34
2022/07/17 05:17:53;;;;;;;3.38;0.95;;;14.80;93.60;;;;;;5107736;28;20024;-37
2022/07/17 05:20:19;;;;;;;1.52;0.60;;;14.80;93.60;;;;;;5108029;28;20098;-34
2022/07/17 05:22:44;;;;;;;3.00;0.85;;;14.80;93.60;;;;;;5107926;28;20039;-36
2022/07/17 05:25:10;;;;;;;1.90;0.70;;;14.80;93.60;;;;;;5107589;28;20042;-35
2022/07/17 05:27:36;;;;;;;1.45;0.70;;;14.90;93.60;;;;;;5108108;28;20024;-34
2022/07/17 05:30:02;;;;;;;1.55;0.70;;;14.90;93.60;;;;;;5108763;28;20028;-35
2022/07/17 05:32:27;;;;;;;2.00;0.80;;;14.90;93.60;;;;;;5106606;28;20031;-35
2022/07/17 05:34:53;;;;;;;1.95;0.80;;;14.90;93.60;;;;;;5108216;28;20020;-34
2022/07/17 05:37:19;;;;;;;2.03;0.80;;;15.00;93.60;;;;;;5107839;28;20600;-36
2022/07/17 05:39:44;;;;;;;2.67;0.68;;;15.00;93.60;;;;;;5106910;28;20028;-33
2022/07/17 05:42:10;;;;;;;0.73;0.60;;;15.00;93.50;;;;;;5108425;28;20114;-34
2022/07/17 05:44:35;;;;;;;2.05;0.82;;;15.10;93.60;;;;;;5107725;28;20023;-35
2022/07/17 05:47:01;;;;;;;2.95;0.70;;;15.20;93.60;;;;;;5107368;28;20064;-36
2022/07/17 05:49:26;;;;;;;1.50;0.82;;;15.20;93.60;;;;;;5106895;28;20785;-34
2022/07/17 05:51:52;;;;;;;1.20;0.70;;;15.20;93.60;;;;;;5108229;28;20027;-35
2022/07/17 05:54:17;;;;;;;2.10;0.82;;;15.30;93.60;;;;;;5106866;28;20028;-37
2022/07/17 05:56:43;;;;;;;2.20;0.88;;;15.30;93.50;;;;;;5107211;28;20114;-33
2022/07/17 05:59:08;;;;;;;2.65;0.88;;;15.40;93.60;;;;;;5107806;28;20011;-34
2022/07/17 06:01:34;;;;;;;3.92;0.75;;;15.50;93.60;;;;;;5106601;28;20558;-35
2022/07/17 06:03:59;;;;;;;2.22;0.90;;;15.60;93.60;;;;;;5107576;28;20561;-34
2022/07/17 06:06:25;;;;;;;4.32;0.80;;;15.60;93.80;;;;;;5106368;28;20035;-35
2022/07/17 06:08:50;;;;;;;3.28;1.10;;;15.70;93.50;;;;;;5107104;28;20019;-35
2022/07/17 06:11:16;;;;;;;3.30;1.15;;;15.70;93.50;;;;;;5107655;28;20015;-35
2022/07/17 06:13:42;;;;;;;3.78;1.00;;;15.80;93.50;;;;;;5106655;28;20115;-34
2022/07/17 06:16:08;;;;;;;1.83;0.70;;;15.80;93.50;;;;;;5107254;28;20427;-37
2022/07/17 06:18:34;;;;;;;1.48;0.80;;;15.90;93.50;;;;;;5107762;28;20098;-35
2022/07/17 06:20:59;;;;;;;3.13;1.00;;;15.90;93.50;;;;;;5106402;28;20118;-33
2022/07/17 06:23:25;;;;;;;2.60;0.80;;;15.90;93.40;;;;;;5105077;28;20043;-35
2022/07/17 06:25:50;;;;;;;2.03;0.73;;;15.90;93.40;;;;;;5105559;28;20378;-35
2022/07/17 06:28:16;;;;;;;1.52;0.90;;;16.00;93.40;;;;;;5105301;28;20038;-35
2022/07/17 06:30:41;;;;;;;2.72;0.88;;;16.00;93.40;;;;;;5106266;28;20084;-34
2022/07/17 06:33:07;;;;;;;2.72;1.17;;;16.10;93.40;;;;;;5106704;28;20031;-35
2022/07/17 06:35:33;;;;;;;2.70;0.70;;;16.10;93.30;;;;;;5104886;28;20020;-35
2022/07/17 06:37:59;;;;;;;2.25;0.85;;;16.20;93.30;;;;;;5106953;28;20038;-34
2022/07/17 06:40:25;;;;;;;2.30;0.70;;;16.20;93.20;;;;;;5105444;28;20345;-34
2022/07/17 06:42:50;;;;;;;1.48;0.75;;;16.20;93.20;;;;;;5105599;28;20074;-35
2022/07/17 06:45:16;;;;;;;1.88;0.70;;;16.20;93.20;;;;;;5102410;28;20325;-35
2022/07/17 06:47:42;;;;;;;1.30;0.70;;;16.30;93.10;;;;;;5105281;28;20016;-36
2022/07/17 06:50:08;;;;;;;1.17;0.60;;;16.40;93.10;;;;;;5103855;28;20430;-34
2022/07/17 06:52:34;;;;;;;4.05;0.82;;;16.40;93.10;;;;;;5105412;28;20420;-34
2022/07/17 06:55:00;;;;;;;3.95;0.80;;;16.40;93.00;;;;;;5105508;28;20032;-36
2022/07/17 06:57:25;;;;;;;3.30;0.93;;;16.50;92.90;;;;;;5104155;28;20037;-35
2022/07/17 06:59:51;;;;;;;1.17;0.63;;;16.50;92.90;;;;;;5105601;28;20027;-36
2022/07/17 07:02:16;;;;;;;2.63;0.73;;;16.50;92.80;;;;;;5105297;28;20023;-35
2022/07/17 07:04:43;;;;;;;1.33;0.70;;;16.60;92.80;;;;;;5104322;28;20490;-37
2022/07/17 07:07:09;;;;;;;2.38;0.52;;;16.60;92.70;;;;;;5106060;28;20817;-34
2022/07/17 07:09:34;;;;;;;3.08;0.73;;;16.70;92.60;;;;;;5104158;28;20621;-35
2022/07/17 07:12:00;;;;;;;2.13;0.70;;;16.70;92.60;;;;;;5104490;28;20028;-34
2022/07/17 07:14:25;;;;;;;1.98;0.98;;;16.70;92.50;;;;;;5105495;28;20024;-35
2022/07/17 07:16:51;;;;;;;2.30;0.60;;;16.80;92.50;;;;;;5104418;28;20039;-34
2022/07/17 07:19:17;;;;;;;2.33;0.63;;;16.90;92.40;;;;;;5104462;28;20455;-34
2022/07/17 07:21:42;;;;;;;1.73;0.77;;;16.90;92.40;;;;;;5104708;28;20488;-33
2022/07/17 07:24:08;;;;;;;1.33;0.57;;;17.00;92.30;;;;;;5104187;28;20115;-37
2022/07/17 07:26:33;;;;;;;1.60;0.60;;;17.00;92.30;;;;;;5104241;28;20115;-35
2022/07/17 07:28:59;;;;;;;1.25;0.65;;;17.00;92.30;;;;;;5105303;28;20027;-35
2022/07/17 07:31:24;;;;;;;1.65;0.75;;;17.00;92.30;;;;;;5103792;28;20058;-36
2022/07/17 07:33:50;;;;;;;1.52;0.73;;;17.10;92.30;;;;;;5104369;28;20020;-34
2022/07/17 07:36:15;;;;;;;2.67;0.77;;;17.20;92.20;;;;;;5105516;28;20482;-34
2022/07/17 07:38:41;;;;;;;2.72;0.90;;;17.20;92.20;;;;;;5104253;28;20073;-35
2022/07/17 07:41:07;;;;;;;0.73;0.57;;;17.20;92.10;;;;;;5104592;28;20292;-35
2022/07/17 07:43:32;;;;;;;2.70;1.08;;;17.30;92.10;;;;;;5104486;28;20019;-34
2022/07/17 07:45:58;;;;;;;1.73;0.52;;;17.40;92.00;;;;;;5104054;28;20592;-35
2022/07/17 07:48:24;;;;;;;2.58;0.75;;;17.40;92.00;;;;;;5104365;28;20023;-34
2022/07/17 07:50:50;;;;;;;1.83;0.68;;;17.50;91.90;;;;;;5104897;28;20526;-34
2022/07/17 07:53:15;;;;;;;1.88;0.75;;;17.50;91.80;;;;;;5104718;28;20330;-34
2022/07/17 07:55:41;;;;;;;3.15;0.80;;;17.60;91.80;;;;;;5104759;28;20110;-36
2022/07/17 07:58:10;;;;;;;4.65;0.90;;;17.60;91.70;;;;;;5104961;28;20080;-35
2022/07/17 08:00:36;;;;;;;2.25;0.63;;;17.70;91.70;;;;;;5103205;28;20028;-35
2022/07/17 08:03:03;;;;;;;2.28;0.85;;;17.70;91.60;;;;;;5104840;28;20031;-35
2022/07/17 08:05:28;;;;;;;1.60;0.68;;;17.80;91.60;;;;;;5104660;28;20032;-36
2022/07/17 08:07:54;;;;;;;1.63;0.80;;;17.80;91.60;;;;;;5104376;28;20024;-33
2022/07/17 08:10:19;;;;;;;1.95;0.75;;;17.90;91.50;;;;;;5104740;28;20038;-35
2022/07/17 08:12:45;;;;;;;3.20;1.10;;;17.90;91.50;;;;;;5105500;28;20020;-35
2022/07/17 08:15:11;;;;;;;2.40;0.88;;;17.90;91.40;;;;;;5104681;28;20042;-36
2022/07/17 08:17:36;;;;;;;3.05;0.90;;;18.00;91.40;;;;;;5104247;28;20058;-35
2022/07/17 08:20:02;;;;;;;1.83;0.80;;;18.00;91.30;;;;;;5104335;28;20055;-35
2022/07/17 08:22:28;;;;;;;2.22;0.98;;;18.00;91.20;;;;;;5102881;28;20401;-35
2022/07/17 08:24:53;;;;;;;1.33;0.80;;;18.10;91.20;;;;;;5104263;28;20028;-35
2022/07/17 08:27:19;;;;;;;2.33;0.73;;;18.10;91.10;;;;;;5104144;28;20038;-36
2022/07/17 08:29:44;;;;;;;0.90;0.70;;;18.10;91.10;;;;;;5104243;28;20038;-36
2022/07/17 08:32:10;;;;;;;3.38;1.05;;;18.10;91.10;;;;;;5104827;28;20035;-36
2022/07/17 08:34:35;;;;;;;2.13;0.60;;;18.20;91.00;;;;;;5103944;28;20062;-35
2022/07/17 08:37:01;;;;;;;3.20;0.60;;;18.30;91.00;;;;;;5104754;28;20383;-34
2022/07/17 08:39:27;;;;;;;1.20;0.90;;;18.30;90.90;;;;;;5104115;28;20192;-35
2022/07/17 08:41:52;;;;;;;1.52;0.80;;;18.40;90.90;;;;;;5104770;28;20478;-35
2022/07/17 08:44:18;;;;;;;1.13;0.60;;;18.40;90.80;;;;;;5104627;28;20490;-34
2022/07/17 08:46:43;;;;;;;3.13;0.90;;;18.40;90.70;;;;;;5104764;28;20467;-35
2022/07/17 08:49:11;;;;;;;1.95;0.80;;;18.50;90.60;;;;;;5103783;28;20019;-35
2022/07/17 08:51:37;;;;;;;1.55;0.70;;;18.60;90.60;;;;;;5104182;28;20024;-35
2022/07/17 08:54:03;;;;;;;1.42;0.90;;;18.60;90.50;;;;;;5104801;28;20359;-36
2022/07/17 08:56:29;;;;;;;3.50;1.10;;;18.70;90.50;;;;;;5102419;28;20036;-36
2022/07/17 08:58:55;;;;;;;1.30;0.70;;;18.70;90.50;;;;;;5105032;28;20031;-34
2022/07/17 09:01:22;;;;;;;1.50;1.00;;;18.80;90.50;;;;;;5101765;28;20446;-35
2022/07/17 09:04:17;;;;;;;1.40;0.70;;;18.80;90.50;;;;;;5104270;28;20038;-34
2022/07/17 09:06:42;;;;;;;1.30;0.63;;;18.90;90.40;;;;;;5086738;28;20027;-35
2022/07/17 09:09:09;;;;;;;2.60;0.70;;;18.90;90.40;;;;;;5104883;28;20088;-35
2022/07/17 09:11:50;;;;;;;1.13;0.50;;;19.00;90.30;;;;;;5103535;28;20447;-34
2022/07/17 09:14:17;;;;;;;1.63;0.90;;;19.00;90.20;;;;;;5106549;28;20501;-34
2022/07/17 09:16:52;;;;;;;1.80;1.00;;;19.10;90.20;;;;;;5107621;28;20368;-36
2022/07/17 09:19:32;;;;;;;2.40;0.80;;;19.10;90.10;;;;;;5107897;28;20035;-35
2022/07/17 09:22:22;;;;;;;1.50;0.70;;;19.20;90.00;;;;;;5107617;28;20035;-37
2022/07/17 09:24:55;;;;;;;2.53;0.88;;;19.30;89.90;;;;;;5107447;28;20058;-35
2022/07/17 09:27:23;;;;;;;1.17;0.68;;;19.40;89.80;;;;;;5107316;28;20460;-35
2022/07/17 09:29:56;;;;;;;1.98;0.50;;;19.40;89.70;;;;;;5108306;28;20073;-40
2022/07/17 09:32:24;;;;;;;3.15;1.13;;;19.50;89.70;;;;;;5106730;28;20142;-35
2022/07/17 09:34:51;;;;;;;2.28;0.85;;;19.50;89.50;;;;;;5108079;28;20023;-34
2022/07/17 09:37:18;;;;;;;1.80;0.70;;;19.60;89.20;;;;;;5107314;28;20035;-33
2022/07/17 09:39:44;;;;;;;2.72;0.95;;;19.60;89.10;;;;;;5106670;28;20031;-34
2022/07/17 09:42:20;;;;;;;2.08;1.30;;;19.70;89.00;;;;;;5108058;28;20367;-35
2022/07/17 09:45:04;;;;;;;3.08;1.17;;;19.70;88.80;;;;;;5106908;28;20460;-35
2022/07/17 09:47:32;;;;;;;2.85;1.02;;;19.80;88.60;;;;;;5106126;28;20035;-35
2022/07/17 09:49:59;;;;;;;1.80;0.90;;;19.80;88.50;;;;;;5108423;28;20027;-35
2022/07/17 09:52:26;;;;;;;2.13;0.90;;;19.90;88.50;;;;;;5106493;28;20024;-40
2022/07/17 09:54:54;;;;;;;0.82;0.50;;;19.90;88.20;;;;;;5107893;28;20111;-34
2022/07/17 09:57:25;;;;;;;1.13;0.80;;;20.00;88.10;;;;;;5107501;28;20031;-35
2022/07/17 09:59:54;;;;;;;2.33;1.00;;;20.10;88.10;;;;;;5106973;28;20055;-36
2022/07/17 10:02:20;;;;;;;1.10;0.60;;;20.10;87.90;;;;;;5106836;28;20024;-36
2022/07/17 10:04:47;;;;;;;1.92;0.63;;;20.10;87.90;;;;;;5106590;28;20139;-34
2022/07/17 10:07:13;;;;;;;1.00;0.60;;;20.20;87.80;;;;;;5106850;28;20024;-35
2022/07/17 10:09:39;;;;;;;2.35;1.00;;;20.30;87.50;;;;;;5107512;28;20038;-34
2022/07/17 10:12:06;;;;;;;2.58;1.02;;;20.30;86.70;;;;;;5107625;28;20032;-34
2022/07/17 10:14:32;;;;;;;1.70;0.68;;;20.30;86.40;;;;;;5106409;28;20055;-36
2022/07/17 10:17:12;;;;;;;2.15;0.88;;;20.40;86.30;;;;;;5107639;28;20043;-34
2022/07/17 10:19:49;;;;;;;1.63;0.70;;;20.50;86.30;;;;;;5106022;28;20597;-35
2022/07/17 10:22:14;;;;;;;5.10;0.70;;;20.50;86.10;;;;;;5106650;28;20035;-35
2022/07/17 10:24:52;;;;;;;1.98;0.77;;;20.60;85.90;;;;;;5105830;28;20030;-35
2022/07/17 10:27:29;;;;;;;1.95;0.80;;;20.60;85.80;;;;;;5105812;28;20047;-35
2022/07/17 10:30:06;;;;;;;1.17;0.70;;;20.70;85.60;;;;;;5104931;28;20043;-35
2022/07/17 10:32:32;;;;;;;2.20;0.70;;;20.70;85.60;;;;;;5106833;28;20032;-34
2022/07/17 10:35:05;;;;;;;2.05;0.90;;;20.80;85.60;;;;;;5106014;28;20372;-34
2022/07/17 10:37:36;;;;;;;1.92;0.73;;;20.80;85.60;;;;;;5106125;28;20505;-35
2022/07/17 10:40:05;;;;;;;1.70;0.70;;;20.80;85.40;;;;;;5107235;28;20038;-35
2022/07/17 10:42:43;;;;;;;2.83;0.90;;;20.90;85.30;;;;;;5105306;28;20368;-34
2022/07/17 10:45:10;;;;;;;0.98;0.47;;;21.00;85.30;;;;;;5105405;28;20024;-35
2022/07/17 10:47:59;;;;;;;1.55;0.60;;;21.00;85.00;;;;;;5106681;28;20036;-35
2022/07/17 10:50:43;;;;;;;1.52;0.80;;;21.10;85.00;;;;;;5102086;28;20654;-35
2022/07/17 10:53:11;;;;;;;1.90;0.73;;;21.20;84.70;;;;;;5106625;28;20027;-34
2022/07/17 10:55:40;;;;;;;1.35;0.63;;;21.30;84.60;;;;;;5105648;28;20079;-34
2022/07/17 10:58:23;;;;;;;1.50;0.95;;;21.30;84.40;;;;;;5107261;28;20030;-35
2022/07/17 11:01:04;;;;;;;2.78;0.82;;;21.30;84.20;;;;;;5106184;28;20437;-36
2022/07/17 11:03:31;;;;;;;1.65;0.90;;;21.30;84.10;;;;;;5104995;28;20057;-35
2022/07/17 11:06:23;;;;;;;1.70;0.65;;;21.40;83.70;;;;;;5103270;28;20106;-35
2022/07/17 11:08:59;;;;;;;3.08;0.90;;;21.50;83.30;;;;;;5105503;28;20020;-34
2022/07/17 11:11:50;;;;;;;1.85;0.70;;;21.60;83.00;;;;;;5106009;28;20024;-35
2022/07/17 11:14:18;;;;;;;3.28;1.10;;;21.70;83.00;;;;;;5105616;28;20474;-33
2022/07/17 11:16:45;;;;;;;2.03;0.95;;;21.80;82.90;;;;;;5105515;28;20402;-34
2022/07/17 11:19:10;;;;;;;2.80;0.95;;;21.80;82.50;;;;;;5106042;28;20102;-34
2022/07/17 11:21:45;;;;;;;3.05;1.00;;;21.90;82.50;;;;;;5105581;28;20114;-35
2022/07/17 11:24:11;;;;;;;2.05;0.80;;;21.90;82.10;;;;;;5105136;28;20058;-34
2022/07/17 11:26:37;;;;;;;1.67;0.80;;;21.90;81.90;;;;;;5104566;28;20016;-34
2022/07/17 11:29:03;;;;;;;1.65;0.80;;;22.00;82.00;;;;;;5105984;28;20715;-33
2022/07/17 11:31:29;;;;;;;1.48;0.90;;;22.10;81.70;;;;;;5104694;28;20035;-37
2022/07/17 11:34:01;;;;;;;2.28;0.80;;;22.10;81.30;;;;;;5106150;28;20019;-35
2022/07/17 11:36:39;;;;;;;2.38;0.88;;;22.10;81.00;;;;;;5104549;28;20039;-35
2022/07/17 11:39:11;;;;;;;2.22;1.23;;;22.10;81.00;;;;;;5105351;28;20019;-35
2022/07/17 11:41:41;;;;;;;;;;;22.10;81.00;;;;;;5105688;28;20410;-34
2022/07/17 11:44:12;;;;;;;1.25;0.60;;;22.10;81.20;;;;;;5105519;28;20014;-34
2022/07/17 11:46:41;;;;;;;1.73;0.60;;;22.10;81.20;;;;;;5104844;28;20527;-34
2022/07/17 11:49:07;;;;;;;1.85;0.85;;;22.20;81.20;;;;;;5105860;28;20023;-34
2022/07/17 11:51:35;;;;;;;1.42;0.80;;;22.20;81.00;;;;;;5103797;28;20028;-35
2022/07/17 11:54:05;;;;;;;1.15;0.77;;;22.40;80.90;;;;;;5105490;28;20031;-35
2022/07/17 11:56:31;;;;;;;1.73;0.77;;;22.60;80.80;;;;;;5105519;28;20050;-35
2022/07/17 11:58:56;;;;;;;1.30;0.80;;;22.70;80.30;;;;;;5105042;28;20020;-36
2022/07/17 12:01:27;;;;;;;1.85;0.80;;;22.70;80.10;;;;;;5104866;28;20024;-36
2022/07/17 12:03:59;;;;;;;1.45;0.70;;;22.80;80.10;;;;;;5105948;28;20538;-35
2022/07/17 12:06:29;;;;;;;1.27;0.70;;;22.90;80.00;;;;;;5104083;28;20024;-34
2022/07/17 12:08:55;;;;;;;2.75;0.90;;;22.90;80.00;;;;;;5104952;28;20356;-36
2022/07/17 12:11:20;;;;;;;3.00;1.05;;;22.90;79.70;;;;;;5105115;28;20076;-35
2022/07/17 12:13:47;;;;;;;0.75;0.70;;;22.90;79.60;;;;;;5103921;28;20024;-35
2022/07/17 12:16:30;;;;;;;2.83;0.70;;;22.90;79.60;;;;;;5104779;28;20059;-35
2022/07/17 12:18:56;;;;;;;1.70;0.85;;;23.00;79.60;;;;;;5094976;28;20024;-35
2022/07/17 12:21:22;;;;;;;0.80;0.47;;;23.10;79.60;;;;;;5103922;28;20484;-35
2022/07/17 12:24:00;;;;;;;0.75;0.60;;;23.10;79.40;;;;;;5104240;28;20502;-36
2022/07/17 12:26:26;;;;;;;2.25;0.77;;;23.20;79.30;;;;;;5103691;28;20020;-34
2022/07/17 12:28:51;;;;;;;1.38;0.80;;;23.30;79.10;;;;;;5105050;28;20020;-34
2022/07/17 12:31:17;;;;;;;1.88;0.80;;;23.40;78.80;;;;;;5104828;28;20028;-34
2022/07/17 12:33:43;;;;;;;0.93;0.60;;;23.40;78.60;;;;;;5104245;28;20019;-36
2022/07/17 12:36:09;;;;;;;2.10;0.85;;;23.40;78.50;;;;;;5105117;28;20039;-34
2022/07/17 12:38:35;;;;;;;1.77;0.70;;;23.40;78.50;;;;;;5103948;28;20046;-36
2022/07/17 12:41:01;;;;;;;0.57;0.57;;;23.40;78.30;;;;;;5105124;28;20491;-35
2022/07/17 12:43:26;;;;;;;2.70;1.30;;;23.40;78.30;;;;;;5104373;28;20031;-34
2022/07/17 12:45:52;;;;;;;1.90;0.75;;;23.40;78.20;;;;;;5105025;28;20509;-35
2022/07/17 12:48:18;;;;;;;0.68;0.60;;;23.40;78.10;;;;;;5104671;28;20032;-34